createdAt,value
2018-05-12T02:15:22.300Z,65.58
2018-05-12T02:15:22.867Z,65.39
2018-05-12T02:15:23.467Z,65.55
2018-05-12T02:15:24.067Z,65.17
2018-05-12T02:15:24.666Z,65.36
2018-05-12T02:15:25.265Z,65.36
2018-05-12T02:15:25.868Z,65.30
2018-05-12T02:16:19.923Z,64.43
2018-05-12T02:16:20.519Z,64.43
2018-05-12T02:16:21.121Z,64.15
2018-05-12T02:16:21.719Z,64.78
2018-05-12T02:16:22.318Z,64.78
2018-05-12T02:16:22.918Z,64.78
2018-05-12T02:16:23.520Z,64.78
2018-05-12T02:17:17.574Z,65.30
2018-05-12T02:17:18.173Z,65.30
2018-05-12T02:17:18.772Z,65.26
2018-05-12T02:17:19.371Z,65.45
2018-05-12T02:17:19.970Z,65.39
2018-05-12T02:17:20.572Z,65.26
2018-05-12T02:17:21.171Z,65.30
2018-05-12T02:18:15.230Z,65.30
2018-05-12T02:18:15.823Z,65.48
2018-05-12T02:18:16.423Z,65.48
2018-05-12T02:18:17.027Z,65.48
2018-05-12T02:18:17.623Z,65.45
2018-05-12T02:18:18.222Z,65.48
2018-05-12T02:18:18.824Z,65.45
2018-05-12T02:19:12.911Z,64.69
2018-05-12T02:19:13.475Z,64.69
2018-05-12T02:19:14.075Z,64.53
2018-05-12T02:19:14.679Z,64.43
2018-05-12T02:19:15.275Z,64.40
2018-05-12T02:19:15.874Z,64.59
2018-05-12T02:19:16.475Z,64.50
2018-05-12T02:20:10.531Z,65.07
2018-05-12T02:20:11.129Z,64.98
2018-05-12T02:20:11.733Z,65.17
2018-05-12T02:20:12.328Z,65.11
2018-05-12T02:20:12.931Z,65.17
2018-05-12T02:20:13.528Z,65.30
2018-05-12T02:20:14.127Z,65.30
2018-05-12T02:21:08.186Z,65.11
2018-05-12T02:21:08.780Z,65.20
2018-05-12T02:21:09.379Z,65.17
2018-05-12T02:21:09.979Z,65.20
2018-05-12T02:21:10.579Z,65.39
2018-05-12T02:21:11.180Z,65.20
2018-05-12T02:21:11.782Z,65.39
2018-05-12T02:22:05.837Z,66.50
2018-05-12T02:22:06.432Z,66.73
2018-05-12T02:22:07.032Z,66.83
2018-05-12T02:22:07.632Z,66.83
2018-05-12T02:22:08.233Z,66.83
2018-05-12T02:22:08.835Z,66.92
2018-05-12T02:22:09.432Z,66.73
2018-05-12T02:23:05.945Z,68.07
2018-05-12T02:23:06.543Z,68.07
2018-05-12T02:23:07.140Z,68.07
2018-05-12T02:25:41.282Z,65.97
2018-05-12T02:25:41.791Z,65.87
2018-05-12T02:25:42.386Z,65.97
2018-05-12T02:25:42.987Z,65.58
2018-05-12T02:25:43.587Z,65.97
2018-05-12T02:25:44.186Z,65.87
2018-05-12T02:25:44.784Z,65.87
2018-05-12T02:25:45.402Z,66.25
2018-05-12T02:25:45.983Z,66.06
2018-05-12T02:26:39.963Z,66.92
2018-05-12T02:26:40.560Z,66.73
2018-05-12T02:26:41.163Z,66.54
2018-05-12T02:26:41.761Z,66.73
2018-05-12T02:26:42.363Z,66.73
2018-05-12T02:26:42.960Z,66.83
2018-05-12T02:26:43.566Z,67.11
2018-05-12T02:27:37.614Z,66.83
2018-05-12T02:27:38.211Z,66.63
2018-05-12T02:27:38.814Z,66.83
2018-05-12T02:27:39.413Z,66.63
2018-05-12T02:27:40.016Z,67.02
2018-05-12T02:27:40.613Z,67.11
2018-05-12T02:27:41.212Z,66.63
2018-05-12T02:28:35.274Z,66.92
2018-05-12T02:28:35.867Z,66.54
2018-05-12T02:28:36.465Z,66.54
2018-05-12T02:28:37.072Z,66.73
2018-05-12T02:28:37.668Z,66.73
2018-05-12T02:28:38.266Z,66.83
2018-05-12T02:28:38.866Z,66.63
2018-05-12T02:29:32.951Z,66.54
2018-05-12T02:29:33.516Z,66.63
2018-05-12T02:29:34.116Z,66.63
2018-05-12T02:29:34.721Z,66.73
2018-05-12T02:29:35.318Z,67.11
2018-05-12T02:29:35.915Z,67.11
2018-05-12T02:29:36.516Z,67.11
2018-05-12T02:30:30.661Z,67.78
2018-05-12T02:30:31.181Z,68.35
2018-05-12T02:30:31.782Z,68.35
2018-05-12T02:30:32.369Z,67.69
2018-05-12T02:30:32.971Z,68.07
2018-05-12T02:30:33.567Z,68.26
2018-05-12T02:30:34.175Z,68.16
2018-05-12T02:31:28.223Z,66.73
2018-05-12T02:31:28.821Z,66.73
2018-05-12T02:31:29.426Z,66.54
2018-05-12T02:31:30.021Z,66.54
2018-05-12T02:31:30.623Z,66.63
2018-05-12T02:31:31.220Z,66.92
2018-05-12T02:31:31.821Z,66.54
2018-05-12T02:32:25.874Z,67.78
2018-05-12T02:32:26.471Z,68.26
2018-05-12T02:32:27.076Z,67.78
2018-05-12T02:32:27.672Z,68.16
2018-05-12T02:32:28.277Z,68.16
2018-05-12T02:32:28.871Z,68.16
2018-05-12T02:32:29.471Z,67.88
2018-05-12T02:33:23.535Z,67.11
2018-05-12T02:33:24.122Z,66.83
2018-05-12T02:33:24.721Z,67.11
2018-05-12T02:33:25.322Z,67.21
2018-05-12T02:33:25.920Z,67.02
2018-05-12T02:33:26.521Z,66.83
2018-05-12T02:33:27.120Z,67.11
2018-05-12T02:34:21.177Z,67.78
2018-05-12T02:34:21.779Z,67.78
2018-05-12T02:34:22.379Z,67.97
2018-05-12T02:34:22.977Z,67.97
2018-05-12T02:34:23.577Z,68.35
2018-05-12T02:34:24.177Z,68.35
2018-05-12T02:34:24.775Z,68.16
2018-05-12T02:35:18.855Z,68.26
2018-05-12T02:35:19.431Z,68.26
2018-05-12T02:35:20.027Z,68.26
2018-05-12T02:35:20.627Z,68.35
2018-05-12T02:35:21.228Z,68.07
2018-05-12T02:35:21.908Z,68.35
2018-05-12T02:35:22.426Z,68.35
2018-05-12T02:36:16.482Z,69.02
2018-05-12T02:36:17.078Z,68.74
2018-05-12T02:36:17.679Z,68.64
2018-05-12T02:36:18.279Z,68.84
2018-05-12T02:36:18.892Z,69.02
2018-05-12T02:36:19.478Z,69.50
2018-05-12T02:36:20.084Z,69.31
2018-05-12T02:37:14.139Z,69.70
2018-05-12T02:37:14.734Z,69.89
2018-05-12T02:37:15.330Z,69.73
2018-05-12T02:37:15.930Z,69.64
2018-05-12T02:37:16.536Z,69.64
2018-05-12T02:37:17.131Z,69.70
2018-05-12T02:37:17.731Z,69.73
2018-05-12T02:38:11.784Z,68.74
2018-05-12T02:38:12.381Z,69.12
2018-05-12T02:38:12.986Z,69.12
2018-05-12T02:38:13.583Z,69.31
2018-05-12T02:38:14.182Z,69.25
2018-05-12T02:38:14.783Z,68.74
2018-05-12T02:38:15.383Z,68.87
2018-05-12T02:39:09.437Z,69.41
2018-05-12T02:39:10.041Z,69.70
2018-05-12T02:39:10.639Z,69.89
2018-05-12T02:39:11.234Z,69.92
2018-05-12T02:39:11.836Z,69.92
2018-05-12T02:39:12.441Z,69.82
2018-05-12T02:39:13.035Z,69.82
2018-05-12T02:40:07.114Z,71.55
2018-05-12T02:40:07.687Z,71.16
2018-05-12T02:40:08.285Z,71.45
2018-05-12T02:40:08.888Z,71.45
2018-05-12T02:40:09.488Z,71.36
2018-05-12T02:40:10.088Z,71.26
2018-05-12T02:40:10.690Z,71.36
2018-05-12T02:41:04.739Z,71.93
2018-05-12T02:41:05.345Z,72.02
2018-05-12T02:41:05.937Z,71.93
2018-05-12T02:41:06.538Z,72.02
2018-05-12T02:41:07.140Z,72.02
2018-05-12T02:41:07.737Z,71.93
2018-05-12T02:41:08.337Z,72.02
2018-05-12T02:42:02.392Z,72.12
2018-05-12T02:42:02.989Z,72.12
2018-05-12T02:42:03.588Z,72.02
2018-05-12T02:42:04.191Z,72.02
2018-05-12T02:42:04.790Z,72.02
2018-05-12T02:42:05.388Z,72.22
2018-05-12T02:42:05.988Z,72.22
2018-05-12T02:43:00.043Z,69.35
2018-05-12T02:43:00.646Z,69.35
2018-05-12T02:43:01.242Z,69.35
2018-05-12T02:43:01.840Z,69.25
2018-05-12T02:43:02.444Z,69.64
2018-05-12T02:43:03.042Z,69.64
2018-05-12T02:43:57.695Z,69.54
2018-05-12T02:43:58.296Z,69.44
2018-05-12T02:43:58.894Z,69.44
2018-05-12T02:43:59.506Z,69.44
2018-05-12T02:44:00.094Z,69.54
2018-05-12T02:44:00.694Z,69.54
2018-05-12T02:44:01.296Z,69.64
2018-05-12T02:44:55.348Z,71.16
2018-05-12T02:44:55.944Z,71.16
2018-05-12T02:44:56.544Z,71.16
2018-05-12T02:44:57.144Z,71.26
2018-05-12T02:44:57.745Z,71.26
2018-05-12T02:44:58.346Z,71.45
2018-05-12T02:44:58.944Z,71.45
2018-05-12T02:45:53.024Z,72.60
2018-05-12T02:45:53.595Z,72.60
2018-05-12T02:45:54.198Z,72.41
2018-05-12T02:45:54.801Z,72.41
2018-05-12T02:45:55.400Z,72.12
2018-05-12T02:45:55.998Z,72.50
2018-05-12T02:45:56.595Z,71.93
2018-05-12T02:46:50.652Z,72.60
2018-05-12T02:46:51.248Z,72.88
2018-05-12T02:46:51.848Z,72.88
2018-05-12T02:46:52.449Z,72.79
2018-05-12T02:46:53.048Z,72.69
2018-05-12T02:46:53.648Z,72.60
2018-05-12T02:46:54.249Z,72.60
2018-05-12T02:47:48.302Z,71.73
2018-05-12T02:47:48.900Z,72.02
2018-05-12T02:47:49.499Z,72.02
2018-05-12T02:47:50.100Z,71.93
2018-05-12T02:47:50.706Z,71.55
2018-05-12T02:47:51.299Z,71.64
2018-05-12T02:47:51.902Z,71.73
2018-05-12T02:48:45.955Z,72.41
2018-05-12T02:48:46.550Z,72.69
2018-05-12T02:48:47.151Z,72.79
2018-05-12T02:48:47.751Z,72.60
2018-05-12T02:48:48.352Z,72.60
2018-05-12T02:48:48.949Z,72.79
2018-05-12T02:48:49.548Z,72.88
2018-05-12T02:49:43.605Z,72.88
2018-05-12T02:49:44.201Z,72.79
2018-05-12T02:49:44.802Z,72.88
2018-05-12T02:49:45.402Z,72.88
2018-05-12T02:49:46.003Z,72.69
2018-05-12T02:49:46.601Z,72.79
2018-05-12T02:49:47.204Z,72.60
2018-05-12T02:50:41.284Z,72.02
2018-05-12T02:50:41.852Z,72.31
2018-05-12T02:50:42.454Z,72.41
2018-05-12T02:50:43.055Z,72.02
2018-05-12T02:50:43.656Z,72.22
2018-05-12T02:50:44.257Z,71.73
2018-05-12T02:50:44.855Z,71.64
2018-05-12T02:51:38.909Z,73.27
2018-05-12T02:51:39.507Z,73.46
2018-05-12T02:51:40.106Z,73.36
2018-05-12T02:51:40.707Z,73.27
2018-05-12T02:51:41.306Z,73.55
2018-05-12T02:51:41.907Z,73.46
2018-05-12T02:51:42.506Z,73.27
2018-05-12T02:52:36.562Z,72.88
2018-05-12T02:52:37.163Z,72.79
2018-05-12T02:52:37.758Z,72.79
2018-05-12T02:52:38.360Z,72.88
2018-05-12T02:52:38.960Z,72.79
2018-05-12T02:52:39.558Z,72.79
2018-05-12T02:52:40.158Z,72.88
2018-05-12T02:53:34.214Z,74.90
2018-05-12T02:53:34.810Z,74.61
2018-05-12T02:53:35.421Z,74.61
2018-05-12T02:53:36.012Z,74.65
2018-05-12T02:53:36.611Z,74.51
2018-05-12T02:53:37.208Z,74.93
2018-05-12T02:53:37.812Z,74.51
2018-05-12T02:54:31.865Z,74.90
2018-05-12T02:54:32.471Z,74.99
2018-05-12T02:54:33.061Z,75.02
2018-05-12T02:54:33.669Z,74.99
2018-05-12T02:54:34.262Z,75.02
2018-05-12T02:54:34.871Z,75.09
2018-05-12T02:54:35.468Z,75.09
2018-05-12T02:55:29.541Z,73.46
2018-05-12T02:55:30.114Z,73.46
2018-05-12T02:55:30.714Z,73.65
2018-05-12T02:55:31.316Z,73.59
2018-05-12T02:55:31.916Z,73.59
2018-05-12T02:55:32.513Z,73.46
2018-05-12T02:55:33.113Z,73.59
2018-05-12T02:56:27.167Z,73.88
2018-05-12T02:56:27.765Z,73.84
2018-05-12T02:56:28.364Z,73.79
2018-05-12T02:56:28.999Z,73.69
2018-05-12T02:56:29.567Z,74.04
2018-05-12T02:56:30.164Z,74.16
2018-05-12T02:56:30.765Z,73.46
2018-05-12T02:57:24.819Z,73.30
2018-05-12T02:57:25.422Z,73.40
2018-05-12T02:57:26.022Z,73.36
2018-05-12T02:57:26.618Z,73.36
2018-05-12T02:57:27.218Z,73.46
2018-05-12T02:57:27.816Z,73.50
2018-05-12T02:57:28.420Z,73.59
2018-05-12T02:58:22.471Z,74.74
2018-05-12T02:58:23.068Z,74.65
2018-05-12T02:58:23.670Z,74.65
2018-05-12T02:58:24.278Z,75.02
2018-05-12T02:58:24.871Z,74.84
2018-05-12T02:58:25.469Z,74.93
2018-05-12T02:58:26.069Z,75.12
2018-05-12T02:59:20.123Z,75.79
2018-05-12T02:59:20.721Z,75.89
2018-05-12T02:59:21.320Z,75.60
2018-05-12T02:59:21.921Z,75.98
2018-05-12T02:59:22.521Z,75.98
2018-05-12T02:59:23.120Z,75.89
2018-05-12T02:59:23.720Z,75.98
2018-05-12T03:00:17.799Z,76.46
2018-05-12T03:00:18.371Z,76.18
2018-05-12T03:00:18.971Z,75.98
2018-05-12T03:00:19.571Z,76.08
2018-05-12T03:00:20.171Z,76.08
2018-05-12T03:00:20.771Z,76.08
2018-05-12T03:00:21.370Z,76.27
2018-05-12T03:01:15.426Z,76.65
2018-05-12T03:01:16.024Z,76.65
2018-05-12T03:01:16.624Z,76.84
2018-05-12T03:01:17.224Z,76.84
2018-05-12T03:01:17.825Z,76.65
2018-05-12T03:01:18.424Z,76.56
2018-05-12T03:01:19.025Z,76.37
2018-05-12T03:02:13.081Z,74.93
2018-05-12T03:02:13.673Z,74.65
2018-05-12T03:02:14.274Z,74.65
2018-05-12T03:02:14.874Z,74.65
2018-05-12T03:02:15.479Z,74.84
2018-05-12T03:02:16.073Z,74.65
2018-05-12T03:02:16.673Z,74.74
2018-05-12T03:03:10.729Z,74.07
2018-05-12T03:03:11.329Z,73.88
2018-05-12T03:03:11.925Z,73.79
2018-05-12T03:03:12.531Z,73.97
2018-05-12T03:03:13.131Z,74.16
2018-05-12T03:03:13.727Z,73.97
2018-05-12T03:03:14.326Z,73.97
2018-05-12T03:04:08.382Z,75.70
2018-05-12T03:04:08.978Z,75.79
2018-05-12T03:04:09.578Z,75.60
2018-05-12T03:04:10.182Z,75.79
2018-05-12T03:04:10.786Z,75.60
2018-05-12T03:04:11.378Z,75.79
2018-05-12T03:04:11.978Z,75.98
2018-05-12T03:05:06.038Z,76.27
2018-05-12T03:05:06.634Z,76.27
2018-05-12T03:05:07.234Z,76.37
2018-05-12T03:05:07.832Z,76.08
2018-05-12T03:05:08.430Z,76.08
2018-05-12T03:05:09.030Z,76.27
2018-05-12T03:05:09.631Z,76.27
2018-05-12T03:06:03.711Z,74.26
2018-05-12T03:06:04.296Z,74.26
2018-05-12T03:06:04.882Z,74.26
2018-05-12T03:06:05.480Z,74.26
2018-05-12T03:06:06.082Z,74.26
2018-05-12T03:06:06.682Z,74.26
2018-05-12T03:06:07.281Z,74.65
2018-05-12T03:07:01.338Z,75.02
2018-05-12T03:07:01.934Z,75.22
2018-05-12T03:07:02.535Z,75.70
2018-05-12T03:07:03.135Z,75.89
2018-05-12T03:07:03.737Z,75.60
2018-05-12T03:07:04.332Z,75.41
2018-05-12T03:07:04.934Z,75.98
2018-05-12T03:07:58.992Z,76.65
2018-05-12T03:07:59.584Z,76.37
2018-05-12T03:08:00.183Z,76.46
2018-05-12T03:08:00.785Z,76.56
2018-05-12T03:08:01.387Z,76.46
2018-05-12T03:08:01.984Z,76.27
2018-05-12T03:08:02.582Z,76.56
2018-05-12T03:08:56.640Z,76.27
2018-05-12T03:08:57.330Z,76.27
2018-05-12T03:08:57.838Z,76.37
2018-05-12T03:08:58.438Z,76.18
2018-05-12T03:08:59.038Z,76.27
2018-05-12T03:08:59.636Z,76.37
2018-05-12T03:09:00.237Z,76.37
2018-05-12T03:09:54.290Z,77.61
2018-05-12T03:09:54.890Z,77.80
2018-05-12T03:09:55.488Z,77.90
2018-05-12T03:09:56.088Z,77.80
2018-05-12T03:09:56.689Z,77.99
2018-05-12T03:09:57.288Z,77.90
2018-05-12T03:09:57.888Z,77.99
2018-05-12T03:10:51.943Z,77.61
2018-05-12T03:10:52.544Z,77.70
2018-05-12T03:10:53.141Z,77.61
2018-05-12T03:10:53.742Z,77.80
2018-05-12T03:10:54.343Z,77.80
2018-05-12T03:10:54.942Z,77.70
2018-05-12T03:10:55.541Z,77.90
2018-05-12T03:11:49.624Z,76.94
2018-05-12T03:11:50.192Z,76.46
2018-05-12T03:11:50.792Z,76.65
2018-05-12T03:11:51.395Z,76.75
2018-05-12T03:11:51.992Z,76.56
2018-05-12T03:11:52.591Z,76.56
2018-05-12T03:11:53.192Z,76.46
2018-05-12T03:29:57.629Z,76.23
2018-05-12T03:29:58.201Z,76.04
2018-05-12T03:29:58.799Z,76.23
2018-05-12T03:29:59.399Z,75.70
2018-05-12T03:30:00.001Z,75.85
2018-05-12T03:30:00.601Z,75.76
2018-05-12T03:30:01.197Z,75.85
2018-05-12T03:30:55.258Z,75.76
2018-05-12T03:30:55.853Z,76.42
2018-05-12T03:30:56.451Z,76.04
2018-05-12T03:30:57.050Z,75.95
2018-05-12T03:30:57.653Z,76.52
2018-05-12T03:30:58.253Z,76.52
2018-05-12T03:30:58.854Z,76.62
2018-05-12T03:31:52.934Z,76.62
2018-05-12T03:31:53.505Z,76.84
2018-05-12T03:31:54.104Z,76.42
2018-05-12T03:31:54.702Z,76.52
2018-05-12T03:31:55.304Z,76.37
2018-05-12T03:31:55.911Z,76.42
2018-05-12T03:31:56.502Z,76.23
2018-05-12T03:32:50.559Z,75.56
2018-05-12T03:32:51.155Z,75.66
2018-05-12T03:32:51.756Z,75.56
2018-05-12T03:32:52.354Z,75.56
2018-05-12T03:32:52.956Z,75.76
2018-05-12T03:32:53.556Z,75.56
2018-05-12T03:32:54.154Z,75.56
2018-05-12T03:33:48.210Z,75.27
2018-05-12T03:33:48.807Z,75.18
2018-05-12T03:33:49.407Z,75.09
2018-05-12T03:33:50.008Z,75.27
2018-05-12T03:33:50.608Z,75.27
2018-05-12T03:33:51.206Z,74.99
2018-05-12T03:33:51.808Z,74.90
2018-05-12T03:34:45.863Z,76.23
2018-05-12T03:34:46.462Z,76.23
2018-05-12T03:34:47.061Z,76.23
2018-05-12T03:34:47.666Z,76.23
2018-05-12T03:34:48.263Z,76.33
2018-05-12T03:34:48.861Z,76.42
2018-05-12T03:34:49.461Z,76.33
2018-05-12T03:35:43.516Z,75.85
2018-05-12T03:35:44.112Z,75.76
2018-05-12T03:35:44.712Z,75.85
2018-05-12T03:35:45.313Z,75.76
2018-05-12T03:35:45.912Z,75.56
2018-05-12T03:35:46.511Z,75.56
2018-05-12T03:35:47.111Z,75.85
2018-05-12T03:36:41.201Z,75.56
2018-05-12T03:36:41.764Z,75.18
2018-05-12T03:36:42.368Z,75.09
2018-05-12T03:36:42.973Z,74.99
2018-05-12T03:36:43.563Z,75.27
2018-05-12T03:36:44.163Z,75.09
2018-05-12T03:36:44.772Z,75.37
2018-05-12T03:37:38.819Z,75.27
2018-05-12T03:37:39.414Z,75.09
2018-05-12T03:37:40.015Z,75.47
2018-05-12T03:37:40.619Z,75.18
2018-05-12T03:37:41.214Z,75.18
2018-05-12T03:37:41.822Z,75.27
2018-05-12T03:37:42.413Z,75.27
2018-05-12T03:38:36.471Z,74.80
2018-05-12T03:38:37.068Z,74.61
2018-05-12T03:38:37.666Z,75.09
2018-05-12T03:38:38.269Z,75.09
2018-05-12T03:38:38.900Z,74.90
2018-05-12T03:38:39.467Z,74.70
2018-05-12T03:38:40.066Z,74.90
2018-05-12T03:39:34.123Z,74.80
2018-05-12T03:39:34.719Z,75.09
2018-05-12T03:39:35.318Z,74.70
2018-05-12T03:39:35.919Z,74.80
2018-05-12T03:39:36.519Z,74.80
2018-05-12T03:39:37.122Z,74.70
2018-05-12T03:39:37.718Z,74.90
2018-05-12T03:40:31.774Z,75.18
2018-05-12T03:40:32.371Z,74.80
2018-05-12T03:40:32.979Z,75.27
2018-05-12T03:40:33.572Z,74.80
2018-05-12T03:40:34.171Z,75.09
2018-05-12T03:40:34.770Z,75.27
2018-05-12T03:40:35.370Z,75.18
2018-05-12T03:41:29.425Z,75.09
2018-05-12T03:41:30.023Z,75.27
2018-05-12T03:41:30.625Z,74.90
2018-05-12T03:41:31.223Z,74.99
2018-05-12T03:41:31.826Z,74.99
2018-05-12T03:41:32.422Z,75.09
2018-05-12T03:41:33.023Z,75.09
2018-05-12T03:42:27.104Z,74.99
2018-05-12T03:42:27.677Z,75.09
2018-05-12T03:42:28.275Z,75.09
2018-05-12T03:42:28.874Z,75.09
2018-05-12T03:42:29.473Z,74.80
2018-05-12T03:42:30.075Z,74.99
2018-05-12T03:42:30.676Z,75.18
2018-05-12T03:43:24.730Z,74.99
2018-05-12T03:43:25.329Z,74.61
2018-05-12T03:43:25.926Z,74.90
2018-05-12T03:43:26.526Z,74.41
2018-05-12T03:43:27.126Z,74.41
2018-05-12T03:43:27.726Z,74.41
2018-05-12T03:43:28.339Z,74.22
2018-05-12T03:44:22.381Z,74.61
2018-05-12T03:44:22.980Z,74.22
2018-05-12T03:44:23.578Z,74.32
2018-05-12T03:44:24.178Z,74.22
2018-05-12T03:44:24.777Z,74.51
2018-05-12T03:44:25.376Z,74.22
2018-05-12T03:44:25.976Z,74.32
2018-05-12T03:45:20.034Z,74.99
2018-05-12T03:45:20.629Z,75.27
2018-05-12T03:45:21.231Z,75.27
2018-05-12T03:45:21.829Z,75.18
2018-05-12T03:45:22.429Z,75.18
2018-05-12T03:45:23.028Z,75.18
2018-05-12T03:45:23.630Z,75.09
2018-05-12T03:46:17.684Z,74.99
2018-05-12T03:46:18.282Z,75.09
2018-05-12T03:46:18.882Z,75.18
2018-05-12T03:46:19.484Z,75.09
2018-05-12T03:46:20.081Z,74.80
2018-05-12T03:46:20.681Z,74.99
2018-05-12T03:46:21.280Z,75.09
2018-05-12T03:47:15.363Z,75.18
2018-05-12T03:47:15.936Z,75.09
2018-05-12T03:47:16.533Z,75.09
2018-05-12T03:47:17.133Z,75.18
2018-05-12T03:47:17.733Z,75.56
2018-05-12T03:47:18.332Z,74.99
2018-05-12T03:47:18.933Z,75.09
2018-05-12T03:48:12.987Z,75.09
2018-05-12T03:48:13.592Z,75.09
2018-05-12T03:48:14.184Z,74.99
2018-05-12T03:48:14.784Z,74.70
2018-05-12T03:48:15.384Z,74.80
2018-05-12T03:48:15.984Z,75.09
2018-05-12T03:48:16.587Z,75.09
2018-05-12T03:49:10.640Z,75.18
2018-05-12T03:49:11.237Z,75.22
2018-05-12T03:49:11.839Z,75.18
2018-05-12T03:49:12.436Z,75.22
2018-05-12T03:49:13.037Z,74.99
2018-05-12T03:49:13.637Z,74.99
2018-05-12T03:49:14.237Z,74.99
2018-05-12T03:50:08.295Z,73.88
2018-05-12T03:50:08.894Z,73.69
2018-05-12T03:50:09.488Z,73.55
2018-05-12T03:50:10.091Z,73.55
2018-05-12T03:50:10.686Z,73.88
2018-05-12T03:50:11.289Z,73.27
2018-05-12T03:50:11.888Z,73.50
2018-05-12T03:51:05.943Z,73.30
2018-05-12T03:51:06.541Z,73.40
2018-05-12T03:51:07.141Z,73.40
2018-05-12T03:51:07.744Z,73.50
2018-05-12T03:51:08.341Z,73.50
2018-05-12T03:51:08.940Z,73.50
2018-05-12T03:51:09.540Z,73.21
2018-05-12T03:52:03.631Z,72.06
2018-05-12T03:52:04.194Z,72.54
2018-05-12T03:52:04.792Z,72.44
2018-05-12T03:52:05.392Z,72.73
2018-05-12T03:52:05.992Z,72.34
2018-05-12T03:52:06.592Z,72.54
2018-05-12T03:52:07.200Z,71.97
2018-05-12T03:53:02.169Z,74.45
2018-05-12T03:53:02.772Z,74.26
2018-05-12T03:53:03.365Z,74.55
2018-05-12T03:53:03.963Z,74.07
2018-05-12T03:53:04.565Z,74.74
2018-05-12T03:53:05.162Z,74.93
2018-05-12T03:53:59.718Z,73.97
2018-05-12T03:54:00.322Z,73.97
2018-05-12T03:54:00.915Z,73.97
2018-05-12T03:54:01.515Z,73.88
2018-05-12T03:54:02.114Z,73.97
2018-05-12T03:54:02.714Z,74.07
2018-05-12T03:54:03.316Z,73.97
2018-05-12T03:54:57.369Z,75.12
2018-05-12T03:54:57.967Z,75.12
2018-05-12T03:54:58.567Z,74.84
2018-05-12T03:54:59.168Z,74.84
2018-05-12T03:54:59.768Z,74.84
2018-05-12T03:55:00.366Z,74.93
2018-05-12T03:55:00.968Z,74.74
2018-05-12T03:55:55.021Z,75.89
2018-05-12T03:55:55.619Z,75.60
2018-05-12T03:55:56.219Z,75.60
2018-05-12T03:55:56.820Z,75.89
2018-05-12T03:55:57.420Z,75.89
2018-05-12T03:55:58.020Z,75.98
2018-05-12T03:55:58.619Z,75.79
2018-05-12T03:56:52.674Z,76.08
2018-05-12T03:56:53.271Z,76.08
2018-05-12T03:56:53.871Z,76.18
2018-05-12T03:56:54.474Z,75.79
2018-05-12T03:56:55.070Z,76.08
2018-05-12T03:56:55.669Z,75.89
2018-05-12T03:56:56.269Z,75.98
2018-05-12T03:57:50.353Z,76.37
2018-05-12T03:57:50.921Z,76.46
2018-05-12T03:57:51.521Z,76.46
2018-05-12T03:57:52.123Z,76.37
2018-05-12T03:57:52.726Z,76.46
2018-05-12T03:57:53.323Z,76.46
2018-05-12T03:57:53.922Z,76.56
2018-05-12T03:58:47.975Z,76.46
2018-05-12T03:58:48.573Z,76.46
2018-05-12T03:58:49.174Z,76.37
2018-05-12T03:58:49.778Z,76.46
2018-05-12T03:58:50.375Z,76.46
2018-05-12T03:58:50.973Z,76.46
2018-05-12T03:58:51.573Z,76.56
2018-05-12T03:59:45.628Z,76.27
2018-05-12T03:59:46.225Z,76.46
2018-05-12T03:59:46.826Z,76.46
2018-05-12T03:59:47.427Z,76.37
2018-05-12T03:59:48.027Z,76.27
2018-05-12T03:59:48.624Z,76.37
2018-05-12T03:59:49.226Z,76.27
2018-05-12T04:00:43.280Z,77.51
2018-05-12T04:00:43.878Z,77.51
2018-05-12T04:00:44.478Z,77.51
2018-05-12T04:00:45.077Z,77.42
2018-05-12T04:00:45.681Z,77.42
2018-05-12T04:00:46.277Z,77.33
2018-05-12T04:00:46.876Z,77.51
2018-05-12T04:01:40.932Z,76.65
2018-05-12T04:01:41.529Z,76.46
2018-05-12T04:01:42.128Z,76.56
2018-05-12T04:01:42.727Z,76.46
2018-05-12T04:01:43.329Z,77.13
2018-05-12T04:01:43.927Z,76.46
2018-05-12T04:01:44.530Z,76.46
2018-05-12T04:02:38.611Z,75.98
2018-05-12T04:02:39.179Z,75.79
2018-05-12T04:02:39.781Z,75.70
2018-05-12T04:02:40.380Z,75.89
2018-05-12T04:02:40.980Z,75.79
2018-05-12T04:02:41.579Z,76.18
2018-05-12T04:02:42.179Z,75.98
2018-05-12T04:03:36.234Z,75.31
2018-05-12T04:03:36.832Z,75.12
2018-05-12T04:03:37.433Z,74.45
2018-05-12T04:03:38.105Z,74.65
2018-05-12T04:03:38.632Z,74.65
2018-05-12T04:03:39.230Z,74.65
2018-05-12T04:03:39.831Z,75.12
2018-05-12T04:04:33.890Z,76.56
2018-05-12T04:04:34.484Z,76.84
2018-05-12T04:04:35.085Z,76.75
2018-05-12T04:04:35.682Z,76.56
2018-05-12T04:04:36.289Z,76.84
2018-05-12T04:04:36.881Z,76.65
2018-05-12T04:04:37.489Z,76.84
2018-05-12T04:05:31.538Z,77.42
2018-05-12T04:05:32.138Z,77.46
2018-05-12T04:05:32.737Z,77.46
2018-05-12T04:05:33.334Z,77.65
2018-05-12T04:05:33.935Z,77.23
2018-05-12T04:05:34.534Z,77.33
2018-05-12T04:05:35.133Z,77.13
2018-05-12T04:06:29.190Z,78.19
2018-05-12T04:06:29.786Z,78.57
2018-05-12T04:06:30.386Z,78.42
2018-05-12T04:06:30.989Z,78.42
2018-05-12T04:06:31.587Z,78.42
2018-05-12T04:06:32.187Z,78.61
2018-05-12T04:06:32.787Z,78.61
2018-05-12T04:07:26.888Z,75.54
2018-05-12T04:07:27.438Z,76.02
2018-05-12T04:07:28.042Z,76.02
2018-05-12T04:07:28.640Z,76.02
2018-05-12T04:07:29.239Z,75.64
2018-05-12T04:07:29.839Z,75.93
2018-05-12T04:07:30.440Z,76.31
2018-05-12T04:08:24.493Z,76.89
2018-05-12T04:08:25.091Z,77.26
2018-05-12T04:08:25.694Z,76.79
2018-05-12T04:08:26.290Z,76.89
2018-05-12T04:08:26.889Z,76.89
2018-05-12T04:08:27.491Z,76.98
2018-05-12T04:08:28.148Z,76.50
2018-05-12T04:09:22.146Z,75.93
2018-05-12T04:09:22.742Z,75.73
2018-05-12T04:09:23.343Z,75.73
2018-05-12T04:09:23.945Z,75.64
2018-05-12T04:09:24.543Z,75.83
2018-05-12T04:09:25.141Z,75.64
2018-05-12T04:09:25.741Z,75.83
2018-05-12T04:10:19.801Z,77.36
2018-05-12T04:10:20.394Z,77.55
2018-05-12T04:10:20.994Z,77.65
2018-05-12T04:10:21.596Z,77.36
2018-05-12T04:10:22.194Z,77.36
2018-05-12T04:10:22.795Z,77.36
2018-05-12T04:10:23.394Z,77.36
2018-05-12T04:11:17.449Z,76.02
2018-05-12T04:11:18.125Z,76.50
2018-05-12T04:11:18.648Z,76.02
2018-05-12T04:11:19.247Z,76.31
2018-05-12T04:11:19.847Z,76.31
2018-05-12T04:11:20.446Z,76.12
2018-05-12T04:11:21.046Z,76.12
2018-05-12T04:12:15.099Z,77.65
2018-05-12T04:12:15.698Z,77.84
2018-05-12T04:12:16.300Z,78.03
2018-05-12T04:12:16.898Z,78.13
2018-05-12T04:12:17.502Z,78.03
2018-05-12T04:12:18.099Z,78.03
2018-05-12T04:12:18.698Z,78.03
2018-05-12T04:13:13.600Z,78.03
2018-05-12T04:13:14.168Z,78.32
2018-05-12T04:13:14.769Z,78.32
2018-05-12T04:13:15.369Z,78.13
2018-05-12T04:13:15.970Z,78.03
2018-05-12T04:13:16.566Z,78.32
2018-05-12T04:13:17.167Z,78.32
2018-05-12T04:14:11.223Z,78.51
2018-05-12T04:14:11.820Z,78.61
2018-05-12T04:14:12.421Z,78.03
2018-05-12T04:14:13.021Z,78.42
2018-05-12T04:14:13.626Z,78.03
2018-05-12T04:14:14.220Z,78.03
2018-05-12T04:14:14.824Z,78.22
2018-05-12T04:15:08.875Z,79.75
2018-05-12T04:15:09.471Z,79.37
2018-05-12T04:15:10.072Z,79.37
2018-05-12T04:15:10.670Z,79.47
2018-05-12T04:15:11.272Z,79.57
2018-05-12T04:15:11.875Z,79.75
2018-05-12T04:15:12.471Z,79.47
2018-05-12T04:16:06.528Z,78.70
2018-05-12T04:16:07.127Z,78.89
2018-05-12T04:16:07.724Z,78.89
2018-05-12T04:16:08.324Z,78.70
2018-05-12T04:16:08.985Z,78.80
2018-05-12T04:16:09.522Z,78.80
2018-05-12T04:16:10.124Z,78.51
2018-05-12T04:17:04.179Z,77.46
2018-05-12T04:17:04.776Z,77.55
2018-05-12T04:17:05.376Z,77.46
2018-05-12T04:17:05.976Z,77.36
2018-05-12T04:17:06.577Z,77.36
2018-05-12T04:17:07.177Z,77.36
2018-05-12T04:17:07.774Z,77.46
2018-05-12T04:18:01.857Z,77.36
2018-05-12T04:18:02.426Z,77.55
2018-05-12T04:18:03.030Z,77.26
2018-05-12T04:18:03.627Z,77.46
2018-05-12T04:18:04.226Z,77.46
2018-05-12T04:18:04.827Z,77.26
2018-05-12T04:18:05.427Z,77.08
2018-05-12T04:18:59.479Z,78.70
2018-05-12T04:19:00.083Z,78.70
2018-05-12T04:19:00.678Z,78.51
2018-05-12T04:19:01.279Z,78.32
2018-05-12T04:19:01.886Z,78.70
2018-05-12T04:19:02.479Z,78.70
2018-05-12T04:19:03.076Z,78.70
2018-05-12T04:19:57.133Z,78.51
2018-05-12T04:19:57.735Z,78.42
2018-05-12T04:19:58.329Z,78.51
2018-05-12T04:19:58.930Z,78.51
2018-05-12T04:19:59.530Z,78.51
2018-05-12T04:20:00.151Z,78.42
2018-05-12T04:20:00.728Z,78.42